Terminal Aerodrome Forecast
Issued by NWS Shreveport, LA

Home | Current Version | Previous Version | Text Only | Print | Product List | Glossary On
Versions: 1 2 3 4 5 6 7 8 9 10 11 12 13 14 15
558
FTUS44 KSHV 210523
TAFMLU
TAF
KMLU 210523Z 2106/2206 14004KT P6SM FEW040 SCT070 OVC250
     FM210900 13003KT P6SM BKN015 OVC080
      TEMPO 2113/2116 5SM BR BKN008 OVC025
     FM211600 15006KT P6SM BKN015 OVC025
     FM211900 17008G14KT P6SM BKN040 OVC080
     FM220200 14005KT P6SM VCTS BKN050CB BKN080 BKN250=

USA.gov is the U.S. government's official web portal to all federal, state and local government web resources and services.